sensor_id;sensor_type;location;lat;lon;timestamp;P1;durP1;ratioP1;P2;durP2;ratioP2
60088;SDS011;45961;53.574;55.878;2022-09-09T00:00:25;7.93;;;7.20;;
60088;SDS011;45961;53.574;55.878;2022-09-09T00:01:32;7.15;;;6.50;;
60088;SDS011;45961;53.574;55.878;2022-09-09T00:02:49;8.38;;;7.13;;
60088;SDS011;45961;53.574;55.878;2022-09-09T00:04:22;8.13;;;6.38;;
60088;SDS011;45961;53.574;55.878;2022-09-09T00:05:29;7.22;;;6.47;;
60088;SDS011;45961;53.574;55.878;2022-09-09T00:07:01;8.32;;;6.82;;
60088;SDS011;45961;53.574;55.878;2022-09-09T00:08:25;7.93;;;7.13;;
60088;SDS011;45961;53.574;55.878;2022-09-09T00:09:45;7.93;;;6.53;;
60088;SDS011;45961;53.574;55.878;2022-09-09T00:10:54;9.32;;;7.63;;
60088;SDS011;45961;53.574;55.878;2022-09-09T00:20:02;11.00;;;7.35;;
60088;SDS011;45961;53.574;55.878;2022-09-09T00:21:30;8.25;;;7.10;;
60088;SDS011;45961;53.574;55.878;2022-09-09T00:22:35;9.02;;;7.00;;
60088;SDS011;45961;53.574;55.878;2022-09-09T00:23:40;9.95;;;7.82;;
60088;SDS011;45961;53.574;55.878;2022-09-09T00:26:22;10.38;;;7.05;;
60088;SDS011;45961;53.574;55.878;2022-09-09T00:27:45;9.20;;;6.90;;
60088;SDS011;45961;53.574;55.878;2022-09-09T00:28:50;7.57;;;6.80;;
60088;SDS011;45961;53.574;55.878;2022-09-09T00:29:54;7.68;;;6.90;;
60088;SDS011;45961;53.574;55.878;2022-09-09T00:31:11;8.38;;;7.35;;
60088;SDS011;45961;53.574;55.878;2022-09-09T00:32:18;8.50;;;7.10;;
60088;SDS011;45961;53.574;55.878;2022-09-09T00:33:22;8.38;;;6.90;;
60088;SDS011;45961;53.574;55.878;2022-09-09T00:34:25;7.63;;;6.70;;
60088;SDS011;45961;53.574;55.878;2022-09-09T00:35:36;8.35;;;7.03;;
60088;SDS011;45961;53.574;55.878;2022-09-09T00:36:43;7.75;;;6.60;;
60088;SDS011;45961;53.574;55.878;2022-09-09T00:37:46;7.40;;;6.70;;
60088;SDS011;45961;53.574;55.878;2022-09-09T00:38:51;7.40;;;6.70;;
60088;SDS011;45961;53.574;55.878;2022-09-09T00:39:58;7.65;;;6.90;;
60088;SDS011;45961;53.574;55.878;2022-09-09T00:43:30;8.15;;;6.82;;
60088;SDS011;45961;53.574;55.878;2022-09-09T00:44:33;7.63;;;6.82;;
60088;SDS011;45961;53.574;55.878;2022-09-09T00:45:48;9.80;;;6.82;;
60088;SDS011;45961;53.574;55.878;2022-09-09T00:50:00;8.52;;;6.53;;
60088;SDS011;45961;53.574;55.878;2022-09-09T00:51:58;7.95;;;7.03;;
60088;SDS011;45961;53.574;55.878;2022-09-09T00:52:54;6.82;;;6.15;;
60088;SDS011;45961;53.574;55.878;2022-09-09T00:54:39;6.95;;;6.25;;
60088;SDS011;45961;53.574;55.878;2022-09-09T00:57:23;7.00;;;6.30;;
60088;SDS011;45961;53.574;55.878;2022-09-09T00:58:31;8.85;;;6.10;;
60088;SDS011;45961;53.574;55.878;2022-09-09T01:00:52;8.93;;;6.82;;
60088;SDS011;45961;53.574;55.878;2022-09-09T01:02:01;7.93;;;6.30;;
60088;SDS011;45961;53.574;55.878;2022-09-09T01:04:23;7.13;;;6.43;;
60088;SDS011;45961;53.574;55.878;2022-09-09T01:07:18;8.68;;;6.40;;
60088;SDS011;45961;53.574;55.878;2022-09-09T01:09:50;7.65;;;6.53;;
60088;SDS011;45961;53.574;55.878;2022-09-09T01:10:57;9.20;;;6.30;;
60088;SDS011;45961;53.574;55.878;2022-09-09T01:12:15;9.10;;;6.70;;
60088;SDS011;45961;53.574;55.878;2022-09-09T01:18:15;9.48;;;6.50;;
60088;SDS011;45961;53.574;55.878;2022-09-09T01:27:47;7.10;;;6.38;;
60088;SDS011;45961;53.574;55.878;2022-09-09T01:29:16;12.25;;;6.55;;
60088;SDS011;45961;53.574;55.878;2022-09-09T01:30:38;9.68;;;7.38;;
60088;SDS011;45961;53.574;55.878;2022-09-09T01:32:55;9.90;;;7.53;;
60088;SDS011;45961;53.574;55.878;2022-09-09T01:34:13;11.77;;;7.68;;
60088;SDS011;45961;53.574;55.878;2022-09-09T01:35:26;8.93;;;7.28;;
60088;SDS011;45961;53.574;55.878;2022-09-09T01:38:01;11.57;;;7.80;;
60088;SDS011;45961;53.574;55.878;2022-09-09T01:39:04;10.80;;;7.55;;
60088;SDS011;45961;53.574;55.878;2022-09-09T01:40:07;10.82;;;8.25;;
60088;SDS011;45961;53.574;55.878;2022-09-09T01:41:13;10.63;;;7.72;;
60088;SDS011;45961;53.574;55.878;2022-09-09T01:42:46;8.38;;;7.43;;
60088;SDS011;45961;53.574;55.878;2022-09-09T01:44:00;11.27;;;7.65;;
60088;SDS011;45961;53.574;55.878;2022-09-09T01:45:07;11.80;;;7.47;;
60088;SDS011;45961;53.574;55.878;2022-09-09T01:46:15;9.10;;;7.25;;
60088;SDS011;45961;53.574;55.878;2022-09-09T01:47:19;10.32;;;8.00;;
60088;SDS011;45961;53.574;55.878;2022-09-09T01:48:43;10.77;;;7.82;;
60088;SDS011;45961;53.574;55.878;2022-09-09T01:49:47;11.30;;;8.13;;
60088;SDS011;45961;53.574;55.878;2022-09-09T01:50:55;10.85;;;7.53;;
60088;SDS011;45961;53.574;55.878;2022-09-09T01:51:56;10.65;;;7.40;;
60088;SDS011;45961;53.574;55.878;2022-09-09T01:53:11;11.02;;;7.95;;
60088;SDS011;45961;53.574;55.878;2022-09-09T01:54:14;9.10;;;7.75;;
60088;SDS011;45961;53.574;55.878;2022-09-09T01:55:15;9.30;;;7.95;;
60088;SDS011;45961;53.574;55.878;2022-09-09T01:57:30;10.23;;;7.32;;
60088;SDS011;45961;53.574;55.878;2022-09-09T01:58:37;10.25;;;9.07;;
60088;SDS011;45961;53.574;55.878;2022-09-09T02:00:08;8.95;;;7.35;;
60088;SDS011;45961;53.574;55.878;2022-09-09T02:04:03;8.18;;;5.95;;
60088;SDS011;45961;53.574;55.878;2022-09-09T02:06:40;8.65;;;6.80;;
60088;SDS011;45961;53.574;55.878;2022-09-09T02:07:58;9.95;;;6.53;;
60088;SDS011;45961;53.574;55.878;2022-09-09T02:09:39;8.13;;;7.32;;
60088;SDS011;45961;53.574;55.878;2022-09-09T02:10:55;8.07;;;6.35;;
60088;SDS011;45961;53.574;55.878;2022-09-09T02:12:51;7.65;;;6.65;;
60088;SDS011;45961;53.574;55.878;2022-09-09T02:13:57;7.70;;;6.20;;
60088;SDS011;45961;53.574;55.878;2022-09-09T02:17:52;8.25;;;6.95;;
60088;SDS011;45961;53.574;55.878;2022-09-09T02:19:01;8.82;;;6.10;;
60088;SDS011;45961;53.574;55.878;2022-09-09T02:20:32;7.07;;;6.38;;
60088;SDS011;45961;53.574;55.878;2022-09-09T02:21:34;7.95;;;6.45;;
60088;SDS011;45961;53.574;55.878;2022-09-09T02:22:37;8.63;;;6.70;;
60088;SDS011;45961;53.574;55.878;2022-09-09T02:23:41;7.07;;;6.35;;
60088;SDS011;45961;53.574;55.878;2022-09-09T02:24:47;7.20;;;6.03;;
60088;SDS011;45961;53.574;55.878;2022-09-09T02:25:56;6.75;;;6.07;;
60088;SDS011;45961;53.574;55.878;2022-09-09T02:26:59;7.82;;;7.03;;
60088;SDS011;45961;53.574;55.878;2022-09-09T02:28:05;7.07;;;6.28;;
60088;SDS011;45961;53.574;55.878;2022-09-09T02:29:19;7.47;;;6.78;;
60088;SDS011;45961;53.574;55.878;2022-09-09T02:30:27;6.65;;;5.85;;
60088;SDS011;45961;53.574;55.878;2022-09-09T02:31:32;7.40;;;5.38;;
60088;SDS011;45961;53.574;55.878;2022-09-09T02:32:40;6.53;;;5.05;;
60088;SDS011;45961;53.574;55.878;2022-09-09T02:33:47;6.85;;;5.35;;
60088;SDS011;45961;53.574;55.878;2022-09-09T02:34:58;5.53;;;5.00;;
60088;SDS011;45961;53.574;55.878;2022-09-09T02:36:04;5.63;;;5.00;;
60088;SDS011;45961;53.574;55.878;2022-09-09T02:37:09;5.88;;;4.65;;
60088;SDS011;45961;53.574;55.878;2022-09-09T02:38:15;5.90;;;5.20;;
60088;SDS011;45961;53.574;55.878;2022-09-09T02:39:28;5.78;;;5.20;;
60088;SDS011;45961;53.574;55.878;2022-09-09T02:40:29;5.13;;;4.55;;
60088;SDS011;45961;53.574;55.878;2022-09-09T02:41:37;6.22;;;4.85;;
60088;SDS011;45961;53.574;55.878;2022-09-09T02:42:40;6.18;;;4.70;;
60088;SDS011;45961;53.574;55.878;2022-09-09T02:43:43;5.97;;;5.38;;
60088;SDS011;45961;53.574;55.878;2022-09-09T02:44:47;5.43;;;4.88;;
60088;SDS011;45961;53.574;55.878;2022-09-09T02:46:36;5.07;;;4.57;;
60088;SDS011;45961;53.574;55.878;2022-09-09T02:47:37;11.70;;;5.60;;
60088;SDS011;45961;53.574;55.878;2022-09-09T02:50:17;7.03;;;4.97;;
60088;SDS011;45961;53.574;55.878;2022-09-09T02:52:42;6.03;;;5.30;;
60088;SDS011;45961;53.574;55.878;2022-09-09T02:54:10;5.18;;;4.68;;
60088;SDS011;45961;53.574;55.878;2022-09-09T02:55:24;5.30;;;4.45;;
60088;SDS011;45961;53.574;55.878;2022-09-09T02:56:41;4.78;;;4.35;;
60088;SDS011;45961;53.574;55.878;2022-09-09T02:57:48;4.72;;;4.20;;
60088;SDS011;45961;53.574;55.878;2022-09-09T02:58:52;4.60;;;4.20;;
60088;SDS011;45961;53.574;55.878;2022-09-09T02:59:56;5.38;;;4.80;;
60088;SDS011;45961;53.574;55.878;2022-09-09T03:00:59;5.53;;;4.47;;
60088;SDS011;45961;53.574;55.878;2022-09-09T03:02:05;7.38;;;4.07;;
60088;SDS011;45961;53.574;55.878;2022-09-09T03:03:09;4.38;;;3.97;;
60088;SDS011;45961;53.574;55.878;2022-09-09T03:04:11;4.95;;;4.45;;
60088;SDS011;45961;53.574;55.878;2022-09-09T03:05:13;4.90;;;4.40;;
60088;SDS011;45961;53.574;55.878;2022-09-09T03:06:14;5.07;;;4.68;;
60088;SDS011;45961;53.574;55.878;2022-09-09T03:07:18;4.75;;;4.15;;
60088;SDS011;45961;53.574;55.878;2022-09-09T03:08:22;4.53;;;4.13;;
60088;SDS011;45961;53.574;55.878;2022-09-09T03:09:23;5.38;;;3.97;;
60088;SDS011;45961;53.574;55.878;2022-09-09T03:11:25;4.80;;;4.20;;
60088;SDS011;45961;53.574;55.878;2022-09-09T03:12:28;4.65;;;4.22;;
60088;SDS011;45961;53.574;55.878;2022-09-09T03:14:30;4.35;;;3.95;;
60088;SDS011;45961;53.574;55.878;2022-09-09T03:15:32;4.07;;;3.67;;
60088;SDS011;45961;53.574;55.878;2022-09-09T03:16:34;5.75;;;3.90;;
60088;SDS011;45961;53.574;55.878;2022-09-09T03:18:37;4.22;;;3.75;;
60088;SDS011;45961;53.574;55.878;2022-09-09T03:19:38;4.32;;;3.78;;
60088;SDS011;45961;53.574;55.878;2022-09-09T03:20:42;4.25;;;3.85;;
60088;SDS011;45961;53.574;55.878;2022-09-09T03:21:45;5.38;;;4.10;;
60088;SDS011;45961;53.574;55.878;2022-09-09T03:22:47;3.80;;;3.40;;
60088;SDS011;45961;53.574;55.878;2022-09-09T03:23:48;4.28;;;3.78;;
60088;SDS011;45961;53.574;55.878;2022-09-09T03:24:50;4.95;;;4.45;;
60088;SDS011;45961;53.574;55.878;2022-09-09T03:25:51;4.32;;;3.92;;
60088;SDS011;45961;53.574;55.878;2022-09-09T03:27:01;4.85;;;3.80;;
60088;SDS011;45961;53.574;55.878;2022-09-09T03:28:03;4.55;;;4.10;;
60088;SDS011;45961;53.574;55.878;2022-09-09T03:29:04;5.70;;;4.03;;
60088;SDS011;45961;53.574;55.878;2022-09-09T03:30:07;4.30;;;3.90;;
60088;SDS011;45961;53.574;55.878;2022-09-09T03:31:09;5.13;;;3.88;;
60088;SDS011;45961;53.574;55.878;2022-09-09T03:32:13;4.40;;;3.95;;
60088;SDS011;45961;53.574;55.878;2022-09-09T03:33:17;5.80;;;3.22;;
60088;SDS011;45961;53.574;55.878;2022-09-09T03:34:20;4.03;;;3.60;;
60088;SDS011;45961;53.574;55.878;2022-09-09T03:35:21;4.13;;;3.83;;
60088;SDS011;45961;53.574;55.878;2022-09-09T03:36:22;4.28;;;3.88;;
60088;SDS011;45961;53.574;55.878;2022-09-09T03:37:24;5.00;;;3.85;;
60088;SDS011;45961;53.574;55.878;2022-09-09T03:38:27;5.22;;;4.22;;
60088;SDS011;45961;53.574;55.878;2022-09-09T03:39:29;5.78;;;3.85;;
60088;SDS011;45961;53.574;55.878;2022-09-09T03:40:30;4.60;;;3.60;;
60088;SDS011;45961;53.574;55.878;2022-09-09T03:41:32;4.55;;;3.47;;
60088;SDS011;45961;53.574;55.878;2022-09-09T03:42:36;5.55;;;3.78;;
60088;SDS011;45961;53.574;55.878;2022-09-09T03:43:38;4.35;;;3.92;;
60088;SDS011;45961;53.574;55.878;2022-09-09T03:44:40;5.85;;;3.90;;
60088;SDS011;45961;53.574;55.878;2022-09-09T03:45:48;5.43;;;3.75;;
60088;SDS011;45961;53.574;55.878;2022-09-09T03:46:49;4.68;;;3.65;;
60088;SDS011;45961;53.574;55.878;2022-09-09T03:47:51;4.90;;;3.47;;
60088;SDS011;45961;53.574;55.878;2022-09-09T03:48:52;3.85;;;3.30;;
60088;SDS011;45961;53.574;55.878;2022-09-09T03:50:54;6.22;;;3.35;;
60088;SDS011;45961;53.574;55.878;2022-09-09T03:51:58;4.80;;;3.72;;
60088;SDS011;45961;53.574;55.878;2022-09-09T03:53:01;4.70;;;3.60;;
60088;SDS011;45961;53.574;55.878;2022-09-09T03:54:02;5.63;;;3.15;;
60088;SDS011;45961;53.574;55.878;2022-09-09T03:55:06;3.75;;;3.25;;
60088;SDS011;45961;53.574;55.878;2022-09-09T03:56:08;5.03;;;3.28;;
60088;SDS011;45961;53.574;55.878;2022-09-09T03:57:10;3.72;;;3.42;;
60088;SDS011;45961;53.574;55.878;2022-09-09T03:58:12;4.55;;;3.42;;
60088;SDS011;45961;53.574;55.878;2022-09-09T03:59:14;4.15;;;3.75;;
60088;SDS011;45961;53.574;55.878;2022-09-09T04:00:16;6.18;;;3.25;;
60088;SDS011;45961;53.574;55.878;2022-09-09T04:01:17;4.75;;;3.40;;
60088;SDS011;45961;53.574;55.878;2022-09-09T04:03:20;4.13;;;3.13;;
60088;SDS011;45961;53.574;55.878;2022-09-09T04:04:27;4.53;;;3.30;;
60088;SDS011;45961;53.574;55.878;2022-09-09T04:05:29;5.50;;;3.08;;
60088;SDS011;45961;53.574;55.878;2022-09-09T04:06:30;3.80;;;3.40;;
60088;SDS011;45961;53.574;55.878;2022-09-09T04:07:31;3.67;;;3.08;;
60088;SDS011;45961;53.574;55.878;2022-09-09T04:08:32;5.72;;;3.55;;
60088;SDS011;45961;53.574;55.878;2022-09-09T04:09:35;4.60;;;3.55;;
60088;SDS011;45961;53.574;55.878;2022-09-09T04:10:36;5.15;;;3.58;;
60088;SDS011;45961;53.574;55.878;2022-09-09T04:11:38;4.18;;;3.40;;
60088;SDS011;45961;53.574;55.878;2022-09-09T04:12:39;5.00;;;4.07;;
60088;SDS011;45961;53.574;55.878;2022-09-09T04:13:41;5.95;;;3.47;;
60088;SDS011;45961;53.574;55.878;2022-09-09T04:14:44;6.35;;;3.78;;
60088;SDS011;45961;53.574;55.878;2022-09-09T04:15:52;6.18;;;3.97;;
60088;SDS011;45961;53.574;55.878;2022-09-09T04:16:54;4.53;;;4.00;;
60088;SDS011;45961;53.574;55.878;2022-09-09T04:17:57;4.63;;;4.10;;
60088;SDS011;45961;53.574;55.878;2022-09-09T04:18:59;4.32;;;3.92;;
60088;SDS011;45961;53.574;55.878;2022-09-09T04:20:00;5.18;;;3.85;;
60088;SDS011;45961;53.574;55.878;2022-09-09T04:22:08;4.82;;;3.78;;
60088;SDS011;45961;53.574;55.878;2022-09-09T04:23:10;5.78;;;3.97;;
60088;SDS011;45961;53.574;55.878;2022-09-09T04:24:11;4.68;;;3.90;;
60088;SDS011;45961;53.574;55.878;2022-09-09T04:25:11;5.90;;;4.03;;
60088;SDS011;45961;53.574;55.878;2022-09-09T04:27:14;6.05;;;4.03;;
60088;SDS011;45961;53.574;55.878;2022-09-09T04:28:15;4.25;;;3.85;;
60088;SDS011;45961;53.574;55.878;2022-09-09T04:29:18;5.70;;;4.70;;
60088;SDS011;45961;53.574;55.878;2022-09-09T04:30:19;5.55;;;4.68;;
60088;SDS011;45961;53.574;55.878;2022-09-09T04:31:20;5.15;;;4.53;;
60088;SDS011;45961;53.574;55.878;2022-09-09T04:32:26;6.32;;;5.25;;
60088;SDS011;45961;53.574;55.878;2022-09-09T04:33:27;9.55;;;5.85;;
60088;SDS011;45961;53.574;55.878;2022-09-09T04:34:28;9.40;;;6.07;;
60088;SDS011;45961;53.574;55.878;2022-09-09T04:35:31;7.85;;;5.80;;
60088;SDS011;45961;53.574;55.878;2022-09-09T04:36:32;10.48;;;6.88;;
60088;SDS011;45961;53.574;55.878;2022-09-09T04:37:36;7.20;;;6.50;;
60088;SDS011;45961;53.574;55.878;2022-09-09T04:38:37;8.57;;;6.32;;
60088;SDS011;45961;53.574;55.878;2022-09-09T04:39:39;7.45;;;6.35;;
60088;SDS011;45961;53.574;55.878;2022-09-09T04:40:45;6.75;;;5.68;;
60088;SDS011;45961;53.574;55.878;2022-09-09T04:41:48;7.25;;;5.22;;
60088;SDS011;45961;53.574;55.878;2022-09-09T04:42:49;5.32;;;4.82;;
60088;SDS011;45961;53.574;55.878;2022-09-09T04:43:50;5.35;;;4.53;;
60088;SDS011;45961;53.574;55.878;2022-09-09T04:44:55;4.78;;;4.00;;
60088;SDS011;45961;53.574;55.878;2022-09-09T04:45:56;5.68;;;4.65;;
60088;SDS011;45961;53.574;55.878;2022-09-09T04:46:59;6.40;;;4.40;;
60088;SDS011;45961;53.574;55.878;2022-09-09T04:48:00;4.07;;;3.70;;
60088;SDS011;45961;53.574;55.878;2022-09-09T04:49:03;5.15;;;3.85;;
60088;SDS011;45961;53.574;55.878;2022-09-09T04:50:06;4.68;;;3.85;;
60088;SDS011;45961;53.574;55.878;2022-09-09T04:51:09;5.78;;;4.10;;
60088;SDS011;45961;53.574;55.878;2022-09-09T04:52:12;4.28;;;3.60;;
60088;SDS011;45961;53.574;55.878;2022-09-09T04:53:13;6.63;;;3.92;;
60088;SDS011;45961;53.574;55.878;2022-09-09T04:54:14;3.30;;;3.00;;
60088;SDS011;45961;53.574;55.878;2022-09-09T04:55:17;4.65;;;3.03;;
60088;SDS011;45961;53.574;55.878;2022-09-09T04:56:19;4.65;;;3.47;;
60088;SDS011;45961;53.574;55.878;2022-09-09T04:57:29;3.88;;;3.58;;
60088;SDS011;45961;53.574;55.878;2022-09-09T04:58:32;4.38;;;3.53;;
60088;SDS011;45961;53.574;55.878;2022-09-09T04:59:33;5.18;;;3.40;;
60088;SDS011;45961;53.574;55.878;2022-09-09T05:00:37;6.10;;;3.75;;
60088;SDS011;45961;53.574;55.878;2022-09-09T05:01:40;4.70;;;3.70;;
60088;SDS011;45961;53.574;55.878;2022-09-09T05:02:41;4.72;;;3.40;;
60088;SDS011;45961;53.574;55.878;2022-09-09T05:04:47;3.83;;;3.45;;
60088;SDS011;45961;53.574;55.878;2022-09-09T05:05:50;5.18;;;3.50;;
60088;SDS011;45961;53.574;55.878;2022-09-09T05:06:51;4.85;;;3.15;;
60088;SDS011;45961;53.574;55.878;2022-09-09T05:07:51;4.70;;;3.50;;
60088;SDS011;45961;53.574;55.878;2022-09-09T05:08:53;4.75;;;3.78;;
60088;SDS011;45961;53.574;55.878;2022-09-09T05:09:58;4.53;;;3.60;;
60088;SDS011;45961;53.574;55.878;2022-09-09T05:10:59;3.70;;;3.15;;
60088;SDS011;45961;53.574;55.878;2022-09-09T05:13:07;3.35;;;3.05;;
60088;SDS011;45961;53.574;55.878;2022-09-09T05:15:10;4.32;;;2.90;;
60088;SDS011;45961;53.574;55.878;2022-09-09T05:16:12;4.40;;;3.42;;
60088;SDS011;45961;53.574;55.878;2022-09-09T05:17:14;4.28;;;3.47;;
60088;SDS011;45961;53.574;55.878;2022-09-09T05:18:19;4.85;;;3.40;;
60088;SDS011;45961;53.574;55.878;2022-09-09T05:20:23;7.60;;;4.10;;
60088;SDS011;45961;53.574;55.878;2022-09-09T05:21:24;5.35;;;3.55;;
60088;SDS011;45961;53.574;55.878;2022-09-09T05:22:27;4.78;;;3.88;;
60088;SDS011;45961;53.574;55.878;2022-09-09T05:24:29;5.13;;;4.03;;
60088;SDS011;45961;53.574;55.878;2022-09-09T05:25:34;5.40;;;3.40;;
60088;SDS011;45961;53.574;55.878;2022-09-09T05:26:35;5.97;;;3.75;;
60088;SDS011;45961;53.574;55.878;2022-09-09T05:27:36;5.03;;;4.32;;
60088;SDS011;45961;53.574;55.878;2022-09-09T05:28:38;5.72;;;4.15;;
60088;SDS011;45961;53.574;55.878;2022-09-09T05:30:44;6.50;;;4.55;;
60088;SDS011;45961;53.574;55.878;2022-09-09T05:31:45;5.10;;;4.35;;
60088;SDS011;45961;53.574;55.878;2022-09-09T05:32:50;4.93;;;4.40;;
60088;SDS011;45961;53.574;55.878;2022-09-09T05:33:52;4.82;;;4.40;;
60088;SDS011;45961;53.574;55.878;2022-09-09T05:34:54;4.60;;;4.13;;
60088;SDS011;45961;53.574;55.878;2022-09-09T05:36:00;5.30;;;4.80;;
60088;SDS011;45961;53.574;55.878;2022-09-09T05:37:03;4.40;;;3.95;;
60088;SDS011;45961;53.574;55.878;2022-09-09T05:38:06;5.75;;;4.50;;
60088;SDS011;45961;53.574;55.878;2022-09-09T05:39:07;5.93;;;4.75;;
60088;SDS011;45961;53.574;55.878;2022-09-09T05:40:09;4.78;;;4.30;;
60088;SDS011;45961;53.574;55.878;2022-09-09T05:41:11;5.75;;;4.28;;
60088;SDS011;45961;53.574;55.878;2022-09-09T05:42:16;5.80;;;4.50;;
60088;SDS011;45961;53.574;55.878;2022-09-09T05:43:19;7.18;;;4.57;;
60088;SDS011;45961;53.574;55.878;2022-09-09T05:44:20;5.53;;;4.13;;
60088;SDS011;45961;53.574;55.878;2022-09-09T05:45:23;4.93;;;4.07;;
60088;SDS011;45961;53.574;55.878;2022-09-09T05:46:25;5.85;;;4.07;;
60088;SDS011;45961;53.574;55.878;2022-09-09T05:47:27;6.95;;;4.00;;
60088;SDS011;45961;53.574;55.878;2022-09-09T05:48:30;5.85;;;4.25;;
60088;SDS011;45961;53.574;55.878;2022-09-09T05:49:32;5.05;;;4.18;;
60088;SDS011;45961;53.574;55.878;2022-09-09T05:51:34;4.90;;;4.43;;
60088;SDS011;45961;53.574;55.878;2022-09-09T05:52:40;4.93;;;4.30;;
60088;SDS011;45961;53.574;55.878;2022-09-09T05:53:42;6.00;;;4.38;;
60088;SDS011;45961;53.574;55.878;2022-09-09T05:54:43;4.70;;;4.15;;
60088;SDS011;45961;53.574;55.878;2022-09-09T05:55:45;5.20;;;4.13;;
60088;SDS011;45961;53.574;55.878;2022-09-09T05:57:49;5.32;;;3.95;;
60088;SDS011;45961;53.574;55.878;2022-09-09T05:58:53;5.03;;;3.97;;
60088;SDS011;45961;53.574;55.878;2022-09-09T05:59:55;7.18;;;4.63;;
60088;SDS011;45961;53.574;55.878;2022-09-09T06:01:06;4.18;;;3.78;;
60088;SDS011;45961;53.574;55.878;2022-09-09T06:02:11;5.20;;;4.35;;
60088;SDS011;45961;53.574;55.878;2022-09-09T06:03:13;6.30;;;4.32;;
60088;SDS011;45961;53.574;55.878;2022-09-09T06:04:14;6.10;;;4.03;;
60088;SDS011;45961;53.574;55.878;2022-09-09T06:05:15;5.18;;;3.80;;
60088;SDS011;45961;53.574;55.878;2022-09-09T06:06:21;4.90;;;4.22;;
60088;SDS011;45961;53.574;55.878;2022-09-09T06:08:29;4.95;;;4.03;;
60088;SDS011;45961;53.574;55.878;2022-09-09T06:09:30;4.13;;;3.72;;
60088;SDS011;45961;53.574;55.878;2022-09-09T06:11:33;3.47;;;3.17;;
60088;SDS011;45961;53.574;55.878;2022-09-09T06:12:37;4.13;;;3.70;;
60088;SDS011;45961;53.574;55.878;2022-09-09T06:13:39;6.53;;;3.90;;
60088;SDS011;45961;53.574;55.878;2022-09-09T06:14:41;5.95;;;3.60;;
60088;SDS011;45961;53.574;55.878;2022-09-09T06:15:51;6.97;;;3.70;;
60088;SDS011;45961;53.574;55.878;2022-09-09T06:16:54;4.35;;;3.90;;
60088;SDS011;45961;53.574;55.878;2022-09-09T06:17:57;4.20;;;3.70;;
60088;SDS011;45961;53.574;55.878;2022-09-09T06:20:02;5.20;;;3.55;;
60088;SDS011;45961;53.574;55.878;2022-09-09T06:21:06;3.63;;;3.28;;
60088;SDS011;45961;53.574;55.878;2022-09-09T06:22:10;5.63;;;3.70;;
60088;SDS011;45961;53.574;55.878;2022-09-09T06:23:13;6.93;;;3.45;;
60088;SDS011;45961;53.574;55.878;2022-09-09T06:24:14;4.65;;;3.42;;
60088;SDS011;45961;53.574;55.878;2022-09-09T06:25:18;3.53;;;3.08;;
60088;SDS011;45961;53.574;55.878;2022-09-09T06:26:20;5.43;;;3.15;;
60088;SDS011;45961;53.574;55.878;2022-09-09T06:27:24;3.47;;;2.80;;
60088;SDS011;45961;53.574;55.878;2022-09-09T06:28:25;3.63;;;3.08;;
60088;SDS011;45961;53.574;55.878;2022-09-09T06:29:26;4.35;;;2.88;;
60088;SDS011;45961;53.574;55.878;2022-09-09T06:30:27;6.22;;;3.10;;
60088;SDS011;45961;53.574;55.878;2022-09-09T06:31:28;3.50;;;3.08;;
60088;SDS011;45961;53.574;55.878;2022-09-09T06:32:34;4.55;;;2.83;;
60088;SDS011;45961;53.574;55.878;2022-09-09T06:33:38;5.43;;;2.85;;
60088;SDS011;45961;53.574;55.878;2022-09-09T06:34:42;5.18;;;2.97;;
60088;SDS011;45961;53.574;55.878;2022-09-09T06:35:50;4.68;;;3.13;;
60088;SDS011;45961;53.574;55.878;2022-09-09T06:36:54;3.45;;;3.15;;
60088;SDS011;45961;53.574;55.878;2022-09-09T06:37:58;3.47;;;2.78;;
60088;SDS011;45961;53.574;55.878;2022-09-09T06:40:01;10.07;;;3.28;;
60088;SDS011;45961;53.574;55.878;2022-09-09T06:41:03;9.25;;;2.90;;
60088;SDS011;45961;53.574;55.878;2022-09-09T06:42:07;4.32;;;2.90;;
60088;SDS011;45961;53.574;55.878;2022-09-09T06:43:30;4.35;;;3.10;;
60088;SDS011;45961;53.574;55.878;2022-09-09T06:44:34;6.75;;;2.92;;
60088;SDS011;45961;53.574;55.878;2022-09-09T06:45:35;5.75;;;3.10;;
60088;SDS011;45961;53.574;55.878;2022-09-09T06:46:37;10.00;;;3.55;;
60088;SDS011;45961;53.574;55.878;2022-09-09T06:47:40;8.68;;;3.30;;
60088;SDS011;45961;53.574;55.878;2022-09-09T06:48:42;7.60;;;3.30;;
60088;SDS011;45961;53.574;55.878;2022-09-09T06:49:46;10.02;;;3.58;;
60088;SDS011;45961;53.574;55.878;2022-09-09T06:50:47;10.43;;;3.55;;
60088;SDS011;45961;53.574;55.878;2022-09-09T06:51:50;7.57;;;2.95;;
60088;SDS011;45961;53.574;55.878;2022-09-09T06:52:52;5.78;;;3.00;;
60088;SDS011;45961;53.574;55.878;2022-09-09T06:53:54;7.10;;;2.75;;
60088;SDS011;45961;53.574;55.878;2022-09-09T06:54:58;4.43;;;2.50;;
60088;SDS011;45961;53.574;55.878;2022-09-09T06:56:13;2.97;;;2.50;;
60088;SDS011;45961;53.574;55.878;2022-09-09T06:57:20;5.38;;;2.30;;
60088;SDS011;45961;53.574;55.878;2022-09-09T06:58:21;4.65;;;2.00;;
60088;SDS011;45961;53.574;55.878;2022-09-09T06:59:25;4.93;;;2.15;;
60088;SDS011;45961;53.574;55.878;2022-09-09T07:00:29;4.80;;;2.00;;
60088;SDS011;45961;53.574;55.878;2022-09-09T07:01:31;4.70;;;2.28;;
60088;SDS011;45961;53.574;55.878;2022-09-09T07:02:37;3.55;;;2.33;;
60088;SDS011;45961;53.574;55.878;2022-09-09T07:03:40;3.95;;;2.05;;
60088;SDS011;45961;53.574;55.878;2022-09-09T07:04:43;3.00;;;2.17;;
60088;SDS011;45961;53.574;55.878;2022-09-09T07:05:53;2.35;;;2.15;;
60088;SDS011;45961;53.574;55.878;2022-09-09T07:06:57;3.10;;;2.40;;
60088;SDS011;45961;53.574;55.878;2022-09-09T07:08:00;2.40;;;1.92;;
60088;SDS011;45961;53.574;55.878;2022-09-09T07:09:05;4.97;;;2.50;;
60088;SDS011;45961;53.574;55.878;2022-09-09T07:10:08;2.72;;;2.13;;
60088;SDS011;45961;53.574;55.878;2022-09-09T07:11:11;3.78;;;2.28;;
60088;SDS011;45961;53.574;55.878;2022-09-09T07:12:12;2.70;;;2.30;;
60088;SDS011;45961;53.574;55.878;2022-09-09T07:13:24;2.08;;;1.83;;
60088;SDS011;45961;53.574;55.878;2022-09-09T07:14:27;2.67;;;1.85;;
60088;SDS011;45961;53.574;55.878;2022-09-09T07:15:32;2.38;;;2.13;;
60088;SDS011;45961;53.574;55.878;2022-09-09T07:16:34;4.60;;;2.25;;
60088;SDS011;45961;53.574;55.878;2022-09-09T07:17:38;4.82;;;2.53;;
60088;SDS011;45961;53.574;55.878;2022-09-09T07:18:42;2.67;;;2.00;;
60088;SDS011;45961;53.574;55.878;2022-09-09T07:19:44;3.17;;;2.40;;
60088;SDS011;45961;53.574;55.878;2022-09-09T07:20:54;3.47;;;2.10;;
60088;SDS011;45961;53.574;55.878;2022-09-09T07:21:58;3.38;;;2.08;;
60088;SDS011;45961;53.574;55.878;2022-09-09T07:24:00;4.60;;;2.20;;
60088;SDS011;45961;53.574;55.878;2022-09-09T07:25:02;4.65;;;2.42;;
60088;SDS011;45961;53.574;55.878;2022-09-09T07:26:13;2.55;;;2.35;;
60088;SDS011;45961;53.574;55.878;2022-09-09T07:27:16;2.80;;;2.30;;
60088;SDS011;45961;53.574;55.878;2022-09-09T07:28:17;3.10;;;2.53;;
60088;SDS011;45961;53.574;55.878;2022-09-09T07:30:19;2.03;;;1.83;;
60088;SDS011;45961;53.574;55.878;2022-09-09T07:31:22;2.70;;;2.28;;
60088;SDS011;45961;53.574;55.878;2022-09-09T07:32:33;4.47;;;2.78;;
60088;SDS011;45961;53.574;55.878;2022-09-09T07:33:34;3.60;;;2.28;;
60088;SDS011;45961;53.574;55.878;2022-09-09T07:34:36;2.35;;;2.15;;
60088;SDS011;45961;53.574;55.878;2022-09-09T07:36:39;2.63;;;2.33;;
60088;SDS011;45961;53.574;55.878;2022-09-09T07:37:43;3.92;;;2.45;;
60088;SDS011;45961;53.574;55.878;2022-09-09T07:38:46;3.85;;;2.60;;
60088;SDS011;45961;53.574;55.878;2022-09-09T07:39:49;3.88;;;2.53;;
60088;SDS011;45961;53.574;55.878;2022-09-09T07:40:52;3.17;;;2.20;;